createdAt,value
2022-11-07T00:00:47.473Z,96258.19
2022-11-07T00:03:18.354Z,96256.34
2022-11-07T00:05:47.005Z,96264.41
2022-11-07T00:08:14.958Z,96266.19
2022-11-07T00:10:42.910Z,96272.63
2022-11-07T00:13:11.152Z,96269.25
2022-11-07T00:15:39.112Z,96277.78
2022-11-07T00:18:08.407Z,96279.16
2022-11-07T00:20:36.309Z,96283.53
2022-11-07T00:23:04.182Z,96274.44
2022-11-07T00:25:32.084Z,96279.47
2022-11-07T00:27:59.961Z,96279.63
2022-11-07T00:30:27.894Z,96279.38
2022-11-07T00:33:00.038Z,96284.31
2022-11-07T00:35:29.936Z,96293.53
2022-11-07T00:37:58.074Z,96281.69
2022-11-07T00:40:25.996Z,96291.06
2022-11-07T00:42:53.885Z,96293.69
2022-11-07T00:45:21.836Z,96283.63
2022-11-07T00:47:52.023Z,96292.91
2022-11-07T00:50:20.101Z,96274.84
2022-11-07T00:52:49.447Z,96301.22
2022-11-07T00:55:17.406Z,96305.06
2022-11-07T00:57:45.324Z,96307.84
2022-11-07T01:00:14.811Z,96301.53
2022-11-07T01:02:42.823Z,96301.72
2022-11-07T01:05:12.921Z,96307.75
2022-11-07T01:07:42.121Z,96292.72
2022-11-07T01:10:11.424Z,96309.13
2022-11-07T01:12:39.304Z,96298.78
2022-11-07T01:15:07.894Z,96302.72
2022-11-07T01:17:35.776Z,96296.47
2022-11-07T01:20:03.698Z,96302.38
2022-11-07T01:22:31.605Z,96302.75
2022-11-07T01:24:59.499Z,96297.13
2022-11-07T01:27:28.757Z,96302.59
2022-11-07T01:29:56.702Z,96304.47
2022-11-07T01:32:24.585Z,96297.13
2022-11-07T01:34:52.561Z,96288.44
2022-11-07T01:37:20.496Z,96296.00
2022-11-07T01:39:48.406Z,96305.84
2022-11-07T01:42:16.316Z,96293.78
2022-11-07T01:44:54.265Z,96295.84
2022-11-07T01:47:23.014Z,96294.25
2022-11-07T01:49:51.524Z,96298.31
2022-11-07T01:52:21.456Z,96286.22
2022-11-07T01:54:50.887Z,96295.13
2022-11-07T01:57:21.926Z,96297.22
2022-11-07T01:59:50.372Z,96289.59
2022-11-07T02:02:19.929Z,96280.53
2022-11-07T02:04:48.252Z,96274.34
2022-11-07T02:07:19.567Z,96269.63
2022-11-07T02:09:48.117Z,96280.84
2022-11-07T02:12:17.427Z,96271.09
2022-11-07T02:14:45.406Z,96279.09
2022-11-07T02:17:13.968Z,96273.69
2022-11-07T02:19:44.828Z,96284.75
2022-11-07T02:22:17.838Z,96301.72
2022-11-07T02:24:48.843Z,96317.69
2022-11-07T02:27:19.685Z,96325.72
2022-11-07T02:29:51.485Z,96326.13
2022-11-07T02:32:19.386Z,96340.66
2022-11-07T02:34:55.736Z,96338.38
2022-11-07T02:37:26.551Z,96341.97
2022-11-07T02:39:55.873Z,96353.72
2022-11-07T02:42:24.670Z,96352.78
2022-11-07T02:44:53.765Z,96352.16
2022-11-07T02:47:21.641Z,96354.25
2022-11-07T02:49:49.540Z,96357.16
2022-11-07T02:52:17.445Z,96362.28
2022-11-07T02:54:45.332Z,96367.06
2022-11-07T02:57:14.620Z,96360.34
2022-11-07T02:59:42.509Z,96370.84
2022-11-07T03:02:11.443Z,96373.72
2022-11-07T03:04:39.557Z,96378.00
2022-11-07T03:07:07.395Z,96370.75
2022-11-07T03:09:35.286Z,96378.81
2022-11-07T03:12:03.160Z,96370.06
2022-11-07T03:14:32.581Z,96368.31
2022-11-07T03:17:00.491Z,96368.06
2022-11-07T03:19:28.427Z,96382.19
2022-11-07T03:21:56.332Z,96376.69
2022-11-07T03:24:24.258Z,96381.13
2022-11-07T03:26:52.253Z,96373.00
2022-11-07T03:29:20.123Z,96371.84
2022-11-07T03:31:49.385Z,96373.97
2022-11-07T03:34:17.272Z,96378.09
2022-11-07T03:36:45.182Z,96365.50
2022-11-07T03:39:13.077Z,96375.13
2022-11-07T03:41:41.010Z,96375.53
2022-11-07T03:44:09.128Z,96378.09
2022-11-07T03:46:37.065Z,96373.16
2022-11-07T03:49:06.354Z,96377.25
2022-11-07T03:51:34.268Z,96377.75
2022-11-07T03:54:02.172Z,96382.84
2022-11-07T03:56:30.074Z,96388.25
2022-11-07T03:58:58.000Z,96387.84
2022-11-07T04:01:26.015Z,96392.34
2022-11-07T04:03:56.056Z,96387.44
2022-11-07T04:06:25.752Z,96386.69
2022-11-07T04:08:53.913Z,96380.53
2022-11-07T04:11:35.690Z,96397.44
2022-11-07T04:14:21.065Z,96401.06
2022-11-07T04:17:06.185Z,96395.81
2022-11-07T04:19:34.092Z,96390.94
2022-11-07T04:22:03.356Z,96394.31
2022-11-07T04:24:31.258Z,96394.31
2022-11-07T04:27:16.259Z,96398.41
2022-11-07T04:29:44.170Z,96392.00
2022-11-07T04:32:12.065Z,96400.47
2022-11-07T04:34:39.982Z,96401.63
2022-11-07T04:37:09.253Z,96400.56
2022-11-07T04:39:37.133Z,96409.09
2022-11-07T04:42:05.233Z,96403.00
2022-11-07T04:44:33.318Z,96400.41
2022-11-07T04:47:01.252Z,96405.59
2022-11-07T04:49:29.123Z,96404.59
2022-11-07T04:51:57.795Z,96402.47
2022-11-07T04:54:27.195Z,96402.72
2022-11-07T04:56:55.095Z,96415.13
2022-11-07T04:59:22.963Z,96413.81
2022-11-07T05:01:50.916Z,96416.63
2022-11-07T05:04:18.843Z,96414.63
2022-11-07T05:06:46.959Z,96416.69
2022-11-07T05:09:16.877Z,96425.56
2022-11-07T05:11:46.316Z,96431.06
2022-11-07T05:14:14.367Z,96425.16
2022-11-07T05:16:43.955Z,96434.19
2022-11-07T05:19:14.085Z,96431.56
2022-11-07T05:21:41.981Z,96432.28
2022-11-07T05:24:08.988Z,96435.00
2022-11-07T05:26:36.963Z,96439.19
2022-11-07T05:29:06.700Z,96434.94
2022-11-07T05:31:34.610Z,96435.81
2022-11-07T05:34:02.531Z,96434.53
2022-11-07T05:36:30.423Z,96438.47
2022-11-07T05:38:58.400Z,96444.75
2022-11-07T05:41:26.338Z,96453.09
2022-11-07T05:43:54.316Z,96448.38
2022-11-07T05:46:23.599Z,96452.81
2022-11-07T05:48:55.377Z,96451.25
2022-11-07T05:51:25.917Z,96468.16
2022-11-07T05:53:53.823Z,96466.00
2022-11-07T05:56:21.684Z,96471.47
2022-11-07T05:58:49.588Z,96468.09
2022-11-07T06:01:17.477Z,96487.56
2022-11-07T06:03:46.744Z,96472.75
2022-11-07T06:06:14.642Z,96482.91
2022-11-07T06:08:42.628Z,96476.50
2022-11-07T06:11:10.527Z,96486.53
2022-11-07T06:13:38.406Z,96487.97
2022-11-07T06:16:07.179Z,96492.06
2022-11-07T06:18:41.344Z,96507.25
2022-11-07T06:21:11.202Z,96513.28
2022-11-07T06:23:39.124Z,96513.06
2022-11-07T06:26:07.277Z,96525.91
2022-11-07T06:28:35.568Z,96538.50
2022-11-07T06:31:04.114Z,96535.31
2022-11-07T06:33:32.133Z,96543.44
2022-11-07T06:36:06.663Z,96539.03
2022-11-07T06:38:36.248Z,96546.41
2022-11-07T06:41:08.233Z,96554.03
2022-11-07T06:43:36.158Z,96550.81
2022-11-07T06:46:05.564Z,96556.44
2022-11-07T06:48:33.539Z,96559.41
2022-11-07T06:51:03.195Z,96557.78
2022-11-07T06:53:32.758Z,96559.06
2022-11-07T06:56:02.949Z,96557.22
2022-11-07T06:58:30.961Z,96567.03
2022-11-07T07:01:02.287Z,96568.53
2022-11-07T07:03:30.290Z,96562.13
2022-11-07T07:06:02.891Z,96564.94
2022-11-07T07:08:31.428Z,96563.28
2022-11-07T07:11:04.897Z,96568.81
2022-11-07T07:13:33.174Z,96570.84
2022-11-07T07:16:01.222Z,96568.47
2022-11-07T07:18:29.808Z,96554.97
2022-11-07T07:21:04.897Z,96572.88
2022-11-07T07:23:33.199Z,96571.91
2022-11-07T07:26:01.373Z,96590.03
2022-11-07T07:28:30.801Z,96585.22
2022-11-07T07:31:09.031Z,96581.59
2022-11-07T07:33:37.017Z,96579.38
2022-11-07T07:36:05.480Z,96587.47
2022-11-07T07:38:33.478Z,96590.44
2022-11-07T07:41:01.563Z,96590.44
2022-11-07T07:43:31.327Z,96599.34
2022-11-07T07:46:00.117Z,96587.28
2022-11-07T07:48:28.087Z,96603.34
2022-11-07T07:50:56.341Z,96597.78
2022-11-07T07:53:24.531Z,96599.63
2022-11-07T07:55:56.667Z,96599.53
2022-11-07T07:58:24.651Z,96597.97
2022-11-07T08:00:54.670Z,96597.25
2022-11-07T08:03:22.608Z,96610.38
2022-11-07T08:05:54.079Z,96601.44
2022-11-07T08:08:22.340Z,96604.63
2022-11-07T08:10:54.250Z,96601.34
2022-11-07T08:13:23.508Z,96612.22
2022-11-07T08:15:51.917Z,96610.47
2022-11-07T08:18:22.765Z,96619.84
2022-11-07T08:20:51.497Z,96620.25
2022-11-07T08:23:20.093Z,96613.41
2022-11-07T08:25:52.889Z,96623.91
2022-11-07T08:28:21.662Z,96621.97
2022-11-07T08:30:56.656Z,96620.28
2022-11-07T08:33:26.400Z,96621.81
2022-11-07T08:35:55.669Z,96607.16
2022-11-07T08:38:24.057Z,96613.97
2022-11-07T08:40:52.088Z,96625.75
2022-11-07T08:43:20.322Z,96616.03
2022-11-07T08:45:49.316Z,96620.16
2022-11-07T08:48:18.258Z,96621.38
2022-11-07T08:50:47.848Z,96620.75
2022-11-07T08:53:15.833Z,96620.28
2022-11-07T08:55:43.823Z,96615.25
2022-11-07T08:58:11.765Z,96624.53
2022-11-07T09:00:39.726Z,96628.56
2022-11-07T09:03:38.699Z,96623.63
2022-11-07T09:05:59.011Z,96627.28
2022-11-07T09:08:26.981Z,96638.59
2022-11-07T09:10:54.909Z,96640.75
2022-11-07T09:13:22.882Z,96645.56
2022-11-07T09:15:52.002Z,96655.00
2022-11-07T09:18:20.267Z,96655.13
2022-11-07T09:20:48.473Z,96658.38
2022-11-07T09:23:17.978Z,96663.59
2022-11-07T09:25:46.753Z,96667.47
2022-11-07T09:28:15.226Z,96670.38
2022-11-07T09:30:43.312Z,96671.59
2022-11-07T09:33:11.310Z,96670.13
2022-11-07T09:35:39.188Z,96673.06
2022-11-07T09:38:07.100Z,96669.03
2022-11-07T09:40:43.701Z,96668.63
2022-11-07T09:43:34.480Z,96657.69
2022-11-07T09:46:06.084Z,96662.69
2022-11-07T09:48:39.990Z,96656.34
2022-11-07T09:51:14.528Z,96649.13
2022-11-07T09:53:44.196Z,96644.00
2022-11-07T09:56:14.521Z,96642.97
2022-11-07T09:58:43.691Z,96656.00
2022-11-07T10:01:14.064Z,96645.00
2022-11-07T10:03:49.212Z,96648.72
2022-11-07T10:06:24.901Z,96649.63
2022-11-07T10:08:56.538Z,96649.50
2022-11-07T10:11:33.527Z,96648.47
2022-11-07T10:14:13.570Z,96650.91
2022-11-07T10:16:52.093Z,96649.63
2022-11-07T10:19:26.866Z,96643.06
2022-11-07T10:22:06.001Z,96640.31
2022-11-07T10:24:42.857Z,96642.44
2022-11-07T10:27:12.573Z,96638.47
2022-11-07T10:29:45.138Z,96643.34
2022-11-07T10:32:20.214Z,96632.75
2022-11-07T10:34:54.208Z,96642.91
2022-11-07T10:37:22.755Z,96644.66
2022-11-07T10:39:50.619Z,96636.59
2022-11-07T10:42:22.312Z,96642.69
2022-11-07T10:44:50.387Z,96643.63
2022-11-07T10:47:19.227Z,96642.25
2022-11-07T10:50:00.634Z,96640.63
2022-11-07T10:52:29.405Z,96637.13
2022-11-07T10:55:08.382Z,96626.03
2022-11-07T10:57:37.684Z,96629.81
2022-11-07T11:00:22.981Z,96637.38
2022-11-07T11:02:51.284Z,96635.66
2022-11-07T11:05:24.070Z,96638.91
2022-11-07T11:07:52.252Z,96632.63
2022-11-07T11:10:27.536Z,96628.38
2022-11-07T11:12:56.927Z,96631.41
2022-11-07T11:15:28.884Z,96626.50
2022-11-07T11:18:02.272Z,96615.72
2022-11-07T11:20:35.404Z,96621.69
2022-11-07T11:23:05.581Z,96621.34
2022-11-07T11:25:44.156Z,96616.44
2022-11-07T11:28:19.887Z,96612.31
2022-11-07T11:30:48.811Z,96614.75
2022-11-07T11:33:19.090Z,96606.34
2022-11-07T11:35:49.371Z,96605.28
2022-11-07T11:38:19.039Z,96616.31
2022-11-07T11:40:50.313Z,96597.50
2022-11-07T11:43:21.590Z,96593.91
2022-11-07T11:46:03.343Z,96596.22
2022-11-07T11:48:34.475Z,96596.56
2022-11-07T11:51:04.902Z,96596.84
2022-11-07T11:53:32.788Z,96599.88
2022-11-07T11:56:11.984Z,96597.78
2022-11-07T11:58:44.165Z,96596.34
2022-11-07T12:04:29.814Z,96594.28
2022-11-07T12:07:02.934Z,96579.22
2022-11-07T12:09:36.325Z,96589.34
2022-11-07T12:12:17.674Z,96588.75
2022-11-07T12:15:04.695Z,96587.44
2022-11-07T12:17:38.054Z,96581.16
2022-11-07T12:20:16.024Z,96582.13
2022-11-07T12:22:51.757Z,96574.41
2022-11-07T12:25:25.092Z,96572.50
2022-11-07T12:28:01.396Z,96562.72
2022-11-07T12:30:38.923Z,96557.47
2022-11-07T12:33:16.475Z,96558.50
2022-11-07T12:35:46.498Z,96538.53
2022-11-07T12:38:29.329Z,96540.47
2022-11-07T12:41:04.963Z,96546.09
2022-11-07T12:43:45.595Z,96545.44
2022-11-07T12:46:21.321Z,96535.78
2022-11-07T12:49:04.342Z,96538.66
2022-11-07T12:51:43.833Z,96538.41
2022-11-07T12:54:30.692Z,96530.63
2022-11-07T12:56:58.924Z,96536.13
2022-11-07T12:59:28.914Z,96534.03
2022-11-07T13:02:17.470Z,96530.56
2022-11-07T13:04:52.585Z,96533.91
2022-11-07T13:07:25.093Z,96525.22
2022-11-07T13:09:58.372Z,96528.78
2022-11-07T13:12:33.195Z,96533.69
2022-11-07T13:15:01.444Z,96541.69
2022-11-07T13:17:40.299Z,96540.41
2022-11-07T13:20:26.639Z,96534.44
2022-11-07T13:22:55.821Z,96536.50
2022-11-07T13:25:26.683Z,96515.75
2022-11-07T13:28:03.701Z,96534.56
2022-11-07T13:30:36.428Z,96533.50
2022-11-07T13:33:06.648Z,96525.09
2022-11-07T13:35:35.917Z,96525.41
2022-11-07T13:38:08.699Z,96523.47
2022-11-07T13:40:38.992Z,96526.75
2022-11-07T13:43:13.053Z,96522.34
2022-11-07T13:45:43.795Z,96531.53
2022-11-07T13:48:19.235Z,96527.50
2022-11-07T13:50:51.022Z,96533.72
2022-11-07T13:53:22.368Z,96528.69
2022-11-07T13:55:57.680Z,96539.34
2022-11-07T13:58:26.172Z,96536.66
2022-11-07T14:00:54.242Z,96534.66
2022-11-07T14:03:29.184Z,96534.38
2022-11-07T14:05:57.596Z,96539.59
2022-11-07T14:08:29.201Z,96536.84
2022-11-07T14:10:57.159Z,96529.72
2022-11-07T14:13:28.506Z,96533.28
2022-11-07T14:15:58.026Z,96537.91
2022-11-07T14:18:30.882Z,96530.22
2022-11-07T14:20:59.827Z,96542.88
2022-11-07T14:23:30.042Z,96546.63
2022-11-07T14:25:59.781Z,96547.19
2022-11-07T14:28:34.639Z,96556.78
2022-11-07T14:31:04.245Z,96551.34
2022-11-07T14:33:33.579Z,96550.28
2022-11-07T14:36:05.426Z,96560.25
2022-11-07T14:38:33.488Z,96553.53
2022-11-07T14:41:02.379Z,96555.06
2022-11-07T14:43:30.967Z,96559.84
2022-11-07T14:46:18.148Z,96553.19
2022-11-07T14:48:49.651Z,96548.22
2022-11-07T14:51:20.427Z,96557.84
2022-11-07T14:53:53.701Z,96545.97
2022-11-07T14:56:25.652Z,96552.03
2022-11-07T14:58:53.672Z,96554.38
2022-11-07T15:01:28.514Z,96549.22
2022-11-07T15:04:01.108Z,96548.34
2022-11-07T15:06:34.401Z,96551.06
2022-11-07T15:09:04.841Z,96552.03
2022-11-07T15:11:34.717Z,96549.31
2022-11-07T15:14:04.073Z,96552.78
2022-11-07T15:16:36.709Z,96549.97
2022-11-07T15:19:08.700Z,96549.38
2022-11-07T15:21:39.048Z,96539.25
2022-11-07T15:24:30.885Z,96540.97
2022-11-07T15:27:03.569Z,96540.13
2022-11-07T15:29:33.623Z,96540.19
2022-11-07T15:32:07.554Z,96540.59
2022-11-07T15:34:58.605Z,96542.19
2022-11-07T15:37:26.456Z,96535.81
2022-11-07T15:39:54.500Z,96537.19
2022-11-07T15:42:22.501Z,96542.16
2022-11-07T15:44:50.430Z,96543.44
2022-11-07T15:47:19.720Z,96549.38
2022-11-07T15:49:49.200Z,96547.50
2022-11-07T15:52:17.092Z,96552.16
2022-11-07T15:54:45.194Z,96549.56
2022-11-07T15:57:14.157Z,96554.81
2022-11-07T15:59:42.836Z,96550.38
2022-11-07T16:02:14.346Z,96552.41
2022-11-07T16:04:43.645Z,96556.38
2022-11-07T16:07:15.652Z,96561.50
2022-11-07T16:09:43.629Z,96558.81
2022-11-07T16:12:13.213Z,96566.91
2022-11-07T16:14:44.467Z,96561.44
2022-11-07T16:17:13.969Z,96557.50
2022-11-07T16:19:41.927Z,96560.97
2022-11-07T16:22:11.614Z,96557.75
2022-11-07T16:24:40.944Z,96561.47
2022-11-07T16:27:09.228Z,96561.72
2022-11-07T16:29:37.160Z,96562.88
2022-11-07T16:32:05.405Z,96564.00
2022-11-07T16:34:33.354Z,96570.72
2022-11-07T16:37:01.273Z,96575.78
2022-11-07T16:39:29.161Z,96578.66
2022-11-07T16:41:58.752Z,96580.25
2022-11-07T16:44:26.784Z,96577.56
2022-11-07T16:46:56.424Z,96573.41
2022-11-07T16:49:28.647Z,96567.78
2022-11-07T16:51:56.542Z,96574.81
2022-11-07T16:54:24.540Z,96574.22
2022-11-07T16:56:52.916Z,96581.53
2022-11-07T16:59:24.568Z,96571.72
2022-11-07T17:01:53.203Z,96577.81
2022-11-07T17:04:21.277Z,96582.44
2022-11-07T17:06:49.396Z,96589.03
2022-11-07T17:09:20.344Z,96578.63
2022-11-07T17:11:49.091Z,96572.53
2022-11-07T17:14:17.020Z,96574.06
2022-11-07T17:16:48.636Z,96581.81
2022-11-07T17:19:16.573Z,96576.06
2022-11-07T17:21:48.382Z,96577.66
2022-11-07T17:24:16.747Z,96578.06
2022-11-07T17:26:44.732Z,96580.63
2022-11-07T17:29:14.078Z,96581.41
2022-11-07T17:31:42.303Z,96577.38
2022-11-07T17:34:11.798Z,96583.03
2022-11-07T17:36:45.924Z,96569.91
2022-11-07T17:39:16.163Z,96575.75
2022-11-07T17:41:45.615Z,96581.59
2022-11-07T17:44:13.857Z,96585.69
2022-11-07T17:46:43.648Z,96580.97
2022-11-07T17:49:15.366Z,96583.19
2022-11-07T17:51:43.569Z,96576.25
2022-11-07T17:54:12.141Z,96584.94
2022-11-07T17:56:40.425Z,96582.28
2022-11-07T17:59:11.292Z,96577.28
2022-11-07T18:01:40.545Z,96584.53
2022-11-07T18:04:10.035Z,96573.59
2022-11-07T18:06:41.348Z,96588.59
2022-11-07T18:09:11.892Z,96587.97
2022-11-07T18:11:39.804Z,96596.81
2022-11-07T18:14:07.838Z,96582.53
2022-11-07T18:16:37.381Z,96587.13
2022-11-07T18:19:06.541Z,96594.19
2022-11-07T18:21:34.577Z,96585.97
2022-11-07T18:24:03.896Z,96587.97
2022-11-07T18:26:33.243Z,96583.94
2022-11-07T18:29:02.605Z,96585.00
2022-11-07T18:31:30.660Z,96586.81
2022-11-07T18:33:59.276Z,96589.53
2022-11-07T18:36:28.028Z,96587.41
2022-11-07T18:38:55.923Z,96589.69
2022-11-07T18:41:25.345Z,96590.78
2022-11-07T18:43:54.390Z,96587.53
2022-11-07T18:46:22.388Z,96589.72
2022-11-07T18:48:50.792Z,96588.38
2022-11-07T18:51:21.356Z,96585.22
2022-11-07T18:53:49.897Z,96580.53
2022-11-07T18:56:18.331Z,96580.41
2022-11-07T18:58:47.711Z,96584.97
2022-11-07T19:01:17.486Z,96587.09
2022-11-07T19:03:46.335Z,96584.78
2022-11-07T19:06:16.458Z,96585.34
2022-11-07T19:08:47.322Z,96589.88
2022-11-07T19:11:19.993Z,96584.84
2022-11-07T19:13:49.988Z,96586.09
2022-11-07T19:16:19.219Z,96589.88
2022-11-07T19:18:49.592Z,96586.34
2022-11-07T19:21:19.895Z,96589.19
2022-11-07T19:23:48.107Z,96591.63
2022-11-07T19:26:16.046Z,96591.00
2022-11-07T19:28:44.019Z,96589.22
2022-11-07T19:31:13.554Z,96594.78
2022-11-07T19:33:41.713Z,96590.41
2022-11-07T19:36:13.737Z,96596.78
2022-11-07T19:38:41.809Z,96597.59
2022-11-07T19:41:10.496Z,96594.31
2022-11-07T19:43:39.180Z,96599.16
2022-11-07T19:46:07.534Z,96597.09
2022-11-07T19:48:36.913Z,96599.00
2022-11-07T19:51:08.543Z,96607.31
2022-11-07T19:53:36.458Z,96615.97
2022-11-07T19:56:08.687Z,96615.25
2022-11-07T19:58:37.154Z,96604.06
2022-11-07T20:01:13.741Z,96609.47
2022-11-07T20:03:45.851Z,96609.91
2022-11-07T20:06:14.931Z,96607.47
2022-11-07T20:08:46.203Z,96615.78
2022-11-07T20:11:15.180Z,96598.78
2022-11-07T20:13:43.530Z,96610.69
2022-11-07T20:16:11.641Z,96617.13
2022-11-07T20:18:40.674Z,96609.47
2022-11-07T20:21:13.200Z,96612.06
2022-11-07T20:23:41.773Z,96614.06
2022-11-07T20:26:11.125Z,96613.56
2022-11-07T20:28:39.123Z,96607.78
2022-11-07T20:31:10.709Z,96616.75
2022-11-07T20:33:38.767Z,96614.06
2022-11-07T20:36:10.144Z,96614.72
2022-11-07T20:38:38.395Z,96618.88
2022-11-07T20:41:06.939Z,96619.44
2022-11-07T20:43:35.292Z,96622.13
2022-11-07T20:46:07.491Z,96624.94
2022-11-07T20:48:36.091Z,96619.88
2022-11-07T20:51:13.312Z,96620.94
2022-11-07T20:53:46.716Z,96614.94
2022-11-07T20:56:17.920Z,96620.44
2022-11-07T20:58:46.507Z,96626.22
2022-11-07T21:01:16.380Z,96626.97
2022-11-07T21:03:45.449Z,96622.94
2022-11-07T21:06:14.827Z,96623.97
2022-11-07T21:08:45.184Z,96623.13
2022-11-07T21:11:13.899Z,96616.03
2022-11-07T21:13:45.373Z,96615.25
2022-11-07T21:16:16.186Z,96609.97
2022-11-07T21:18:44.104Z,96606.38
2022-11-07T21:21:16.480Z,96608.09
2022-11-07T21:23:44.734Z,96608.78
2022-11-07T21:26:15.197Z,96608.19
2022-11-07T21:28:43.112Z,96602.72
2022-11-07T21:31:13.360Z,96595.53
2022-11-07T21:33:42.228Z,96592.72
2022-11-07T21:36:11.508Z,96594.28
2022-11-07T21:38:40.835Z,96597.13
2022-11-07T21:41:09.690Z,96602.47
2022-11-07T21:43:38.179Z,96593.97
2022-11-07T21:46:10.928Z,96602.72
2022-11-07T21:48:39.335Z,96593.41
2022-11-07T21:51:08.573Z,96595.44
2022-11-07T21:53:37.916Z,96599.75
2022-11-07T21:56:08.744Z,96596.69
2022-11-07T21:58:36.654Z,96602.25
2022-11-07T22:01:05.489Z,96596.56
2022-11-07T22:04:03.769Z,96600.25
2022-11-07T22:06:22.962Z,96604.75
2022-11-07T22:08:52.531Z,96598.88
2022-11-07T22:11:21.865Z,96604.66
2022-11-07T22:13:49.859Z,96601.28
2022-11-07T22:16:19.857Z,96594.63
2022-11-07T22:18:48.532Z,96592.84
2022-11-07T22:21:17.945Z,96591.47
2022-11-07T22:23:45.940Z,96593.16
2022-11-07T22:26:15.857Z,96587.28
2022-11-07T22:28:46.349Z,96588.63
2022-11-07T22:31:15.840Z,96588.91
2022-11-07T22:33:43.774Z,96587.69
2022-11-07T22:36:12.509Z,96587.81
2022-11-07T22:38:41.213Z,96585.34
2022-11-07T22:41:11.463Z,96583.84
2022-11-07T22:43:39.743Z,96584.56
2022-11-07T22:46:11.787Z,96581.81
2022-11-07T22:48:40.180Z,96576.94
2022-11-07T22:51:09.871Z,96576.31
2022-11-07T22:53:38.659Z,96581.16
2022-11-07T22:56:10.311Z,96574.34
2022-11-07T22:58:38.500Z,96575.66
2022-11-07T23:01:07.083Z,96573.44
2022-11-07T23:03:36.336Z,96579.25
2022-11-07T23:06:05.388Z,96574.75
2022-11-07T23:08:34.442Z,96577.41
2022-11-07T23:13:51.475Z,96575.25
2022-11-07T23:16:20.949Z,96576.50
2022-11-07T23:18:50.378Z,96579.69
2022-11-07T23:21:19.098Z,96571.63
2022-11-07T23:23:47.031Z,96575.94
2022-11-07T23:26:16.563Z,96570.91
2022-11-07T23:28:45.258Z,96567.53
2022-11-07T23:31:14.432Z,96565.00
2022-11-07T23:33:44.111Z,96578.41
2022-11-07T23:36:14.410Z,96573.31
2022-11-07T23:38:42.484Z,96580.44
2022-11-07T23:41:12.955Z,96580.66
2022-11-07T23:43:41.196Z,96575.06
2022-11-07T23:46:28.228Z,96571.88
2022-11-07T23:49:24.872Z,96595.59
2022-11-07T23:51:54.120Z,96592.88
2022-11-07T23:54:39.278Z,96590.66
2022-11-07T23:57:07.249Z,96588.31
2022-11-07T23:59:53.261Z,96582.34
